sensor_id;sensor_type;location;lat;lon;timestamp;P1;durP1;ratioP1;P2;durP2;ratioP2
16288;SDS011;26089;43.538;5.250;2023-02-25T00:02:16;20.27;;;10.90;;
16288;SDS011;26089;43.538;5.250;2023-02-25T00:04:43;19.27;;;12.60;;
16288;SDS011;26089;43.538;5.250;2023-02-25T00:07:10;14.97;;;11.40;;
16288;SDS011;26089;43.538;5.250;2023-02-25T00:09:37;16.23;;;10.57;;
16288;SDS011;26089;43.538;5.250;2023-02-25T00:12:04;18.27;;;10.97;;
16288;SDS011;26089;43.538;5.250;2023-02-25T00:14:31;16.70;;;10.50;;
16288;SDS011;26089;43.538;5.250;2023-02-25T00:16:59;19.77;;;10.50;;
16288;SDS011;26089;43.538;5.250;2023-02-25T00:19:26;20.77;;;11.33;;
16288;SDS011;26089;43.538;5.250;2023-02-25T00:21:53;16.13;;;10.63;;
16288;SDS011;26089;43.538;5.250;2023-02-25T00:24:20;18.57;;;12.10;;
16288;SDS011;26089;43.538;5.250;2023-02-25T00:26:47;20.17;;;11.83;;
16288;SDS011;26089;43.538;5.250;2023-02-25T00:29:14;17.60;;;11.50;;
16288;SDS011;26089;43.538;5.250;2023-02-25T00:31:42;17.00;;;11.40;;
16288;SDS011;26089;43.538;5.250;2023-02-25T00:34:10;16.97;;;11.70;;
16288;SDS011;26089;43.538;5.250;2023-02-25T00:36:37;21.17;;;12.63;;
16288;SDS011;26089;43.538;5.250;2023-02-25T00:39:04;17.47;;;11.47;;
16288;SDS011;26089;43.538;5.250;2023-02-25T00:41:33;16.77;;;11.47;;
16288;SDS011;26089;43.538;5.250;2023-02-25T00:44:00;17.47;;;11.97;;
16288;SDS011;26089;43.538;5.250;2023-02-25T00:46:28;22.17;;;11.47;;
16288;SDS011;26089;43.538;5.250;2023-02-25T00:48:56;16.63;;;11.07;;
16288;SDS011;26089;43.538;5.250;2023-02-25T00:51:25;16.30;;;10.83;;
16288;SDS011;26089;43.538;5.250;2023-02-25T00:53:54;21.77;;;11.37;;
16288;SDS011;26089;43.538;5.250;2023-02-25T00:56:22;15.23;;;10.97;;
16288;SDS011;26089;43.538;5.250;2023-02-25T00:58:50;17.20;;;11.20;;
16288;SDS011;26089;43.538;5.250;2023-02-25T01:01:19;20.63;;;12.53;;
16288;SDS011;26089;43.538;5.250;2023-02-25T01:03:47;17.40;;;11.17;;
16288;SDS011;26089;43.538;5.250;2023-02-25T01:06:16;22.00;;;12.30;;
16288;SDS011;26089;43.538;5.250;2023-02-25T01:08:44;27.27;;;13.00;;
16288;SDS011;26089;43.538;5.250;2023-02-25T01:11:12;21.97;;;12.47;;
16288;SDS011;26089;43.538;5.250;2023-02-25T01:13:41;22.73;;;13.00;;
16288;SDS011;26089;43.538;5.250;2023-02-25T01:16:09;21.17;;;12.17;;
16288;SDS011;26089;43.538;5.250;2023-02-25T01:18:40;17.17;;;10.70;;
16288;SDS011;26089;43.538;5.250;2023-02-25T01:21:13;15.30;;;10.87;;
16288;SDS011;26089;43.538;5.250;2023-02-25T01:23:42;18.07;;;10.57;;
16288;SDS011;26089;43.538;5.250;2023-02-25T01:26:12;17.17;;;10.30;;
16288;SDS011;26089;43.538;5.250;2023-02-25T01:28:39;19.03;;;10.90;;
16288;SDS011;26089;43.538;5.250;2023-02-25T01:31:06;16.20;;;10.80;;
16288;SDS011;26089;43.538;5.250;2023-02-25T01:33:41;14.37;;;10.67;;
16288;SDS011;26089;43.538;5.250;2023-02-25T01:36:08;17.77;;;10.50;;
16288;SDS011;26089;43.538;5.250;2023-02-25T01:38:35;19.30;;;10.90;;
16288;SDS011;26089;43.538;5.250;2023-02-25T01:41:03;17.83;;;10.97;;
16288;SDS011;26089;43.538;5.250;2023-02-25T01:43:30;17.37;;;11.00;;
16288;SDS011;26089;43.538;5.250;2023-02-25T01:45:57;19.40;;;11.27;;
16288;SDS011;26089;43.538;5.250;2023-02-25T01:48:25;22.47;;;12.63;;
16288;SDS011;26089;43.538;5.250;2023-02-25T01:50:55;17.93;;;10.00;;
16288;SDS011;26089;43.538;5.250;2023-02-25T01:53:27;17.70;;;11.83;;
16288;SDS011;26089;43.538;5.250;2023-02-25T01:55:58;21.50;;;9.80;;
16288;SDS011;26089;43.538;5.250;2023-02-25T01:58:27;21.77;;;11.57;;
16288;SDS011;26089;43.538;5.250;2023-02-25T02:00:55;17.13;;;11.07;;
16288;SDS011;26089;43.538;5.250;2023-02-25T02:03:22;15.57;;;10.20;;
16288;SDS011;26089;43.538;5.250;2023-02-25T02:05:57;14.33;;;10.90;;
16288;SDS011;26089;43.538;5.250;2023-02-25T02:08:29;15.20;;;10.07;;
16288;SDS011;26089;43.538;5.250;2023-02-25T02:10:58;13.63;;;9.97;;
16288;SDS011;26089;43.538;5.250;2023-02-25T02:13:28;15.27;;;9.20;;
16288;SDS011;26089;43.538;5.250;2023-02-25T02:16:01;13.27;;;9.63;;
16288;SDS011;26089;43.538;5.250;2023-02-25T02:18:41;16.60;;;10.10;;
16288;SDS011;26089;43.538;5.250;2023-02-25T02:21:19;14.20;;;9.30;;
16288;SDS011;26089;43.538;5.250;2023-02-25T02:24:09;13.23;;;8.37;;
16288;SDS011;26089;43.538;5.250;2023-02-25T02:27:00;14.50;;;8.63;;
16288;SDS011;26089;43.538;5.250;2023-02-25T02:32:46;17.00;;;9.53;;
16288;SDS011;26089;43.538;5.250;2023-02-25T02:35:19;14.80;;;9.20;;
16288;SDS011;26089;43.538;5.250;2023-02-25T02:37:53;16.00;;;9.30;;
16288;SDS011;26089;43.538;5.250;2023-02-25T02:40:28;15.47;;;9.73;;
16288;SDS011;26089;43.538;5.250;2023-02-25T02:43:17;15.60;;;9.27;;
16288;SDS011;26089;43.538;5.250;2023-02-25T02:45:54;17.30;;;11.47;;
16288;SDS011;26089;43.538;5.250;2023-02-25T02:48:28;16.97;;;9.47;;
16288;SDS011;26089;43.538;5.250;2023-02-25T02:51:01;14.53;;;9.57;;
16288;SDS011;26089;43.538;5.250;2023-02-25T02:53:35;16.40;;;8.73;;
16288;SDS011;26089;43.538;5.250;2023-02-25T02:56:07;14.63;;;9.47;;
16288;SDS011;26089;43.538;5.250;2023-02-25T02:58:39;13.43;;;9.30;;
16288;SDS011;26089;43.538;5.250;2023-02-25T03:01:10;12.87;;;8.57;;
16288;SDS011;26089;43.538;5.250;2023-02-25T03:03:43;12.07;;;8.87;;
16288;SDS011;26089;43.538;5.250;2023-02-25T03:06:13;16.03;;;9.83;;
16288;SDS011;26089;43.538;5.250;2023-02-25T03:08:43;13.87;;;8.67;;
16288;SDS011;26089;43.538;5.250;2023-02-25T03:11:12;16.43;;;9.63;;
16288;SDS011;26089;43.538;5.250;2023-02-25T03:13:39;14.83;;;10.07;;
16288;SDS011;26089;43.538;5.250;2023-02-25T03:16:08;14.10;;;9.63;;
16288;SDS011;26089;43.538;5.250;2023-02-25T03:18:39;15.87;;;9.63;;
16288;SDS011;26089;43.538;5.250;2023-02-25T03:21:17;17.97;;;11.07;;
16288;SDS011;26089;43.538;5.250;2023-02-25T03:23:45;15.83;;;9.17;;
16288;SDS011;26089;43.538;5.250;2023-02-25T03:26:14;16.87;;;9.00;;
16288;SDS011;26089;43.538;5.250;2023-02-25T03:28:48;15.67;;;9.37;;
16288;SDS011;26089;43.538;5.250;2023-02-25T03:31:16;17.07;;;9.80;;
16288;SDS011;26089;43.538;5.250;2023-02-25T03:33:49;14.47;;;9.27;;
16288;SDS011;26089;43.538;5.250;2023-02-25T03:36:20;15.77;;;10.17;;
16288;SDS011;26089;43.538;5.250;2023-02-25T03:38:52;17.00;;;9.60;;
16288;SDS011;26089;43.538;5.250;2023-02-25T03:41:25;12.80;;;9.17;;
16288;SDS011;26089;43.538;5.250;2023-02-25T03:43:55;17.73;;;9.77;;
16288;SDS011;26089;43.538;5.250;2023-02-25T03:46:24;16.40;;;9.53;;
16288;SDS011;26089;43.538;5.250;2023-02-25T03:48:54;13.60;;;9.20;;
16288;SDS011;26089;43.538;5.250;2023-02-25T03:51:23;17.17;;;10.30;;
16288;SDS011;26089;43.538;5.250;2023-02-25T03:53:55;14.03;;;9.53;;
16288;SDS011;26089;43.538;5.250;2023-02-25T03:56:22;14.90;;;9.97;;
16288;SDS011;26089;43.538;5.250;2023-02-25T03:58:49;17.67;;;10.57;;
16288;SDS011;26089;43.538;5.250;2023-02-25T04:01:16;16.77;;;9.63;;
16288;SDS011;26089;43.538;5.250;2023-02-25T04:03:48;15.93;;;9.37;;
16288;SDS011;26089;43.538;5.250;2023-02-25T04:06:19;16.00;;;10.00;;
16288;SDS011;26089;43.538;5.250;2023-02-25T04:08:47;18.87;;;10.40;;
16288;SDS011;26089;43.538;5.250;2023-02-25T04:11:14;15.17;;;9.13;;
16288;SDS011;26089;43.538;5.250;2023-02-25T04:13:41;17.33;;;9.63;;
16288;SDS011;26089;43.538;5.250;2023-02-25T04:16:08;16.30;;;9.43;;
16288;SDS011;26089;43.538;5.250;2023-02-25T04:18:35;14.23;;;9.30;;
16288;SDS011;26089;43.538;5.250;2023-02-25T04:21:03;12.50;;;9.37;;
16288;SDS011;26089;43.538;5.250;2023-02-25T04:23:32;16.13;;;9.40;;
16288;SDS011;26089;43.538;5.250;2023-02-25T04:25:59;15.03;;;9.03;;
16288;SDS011;26089;43.538;5.250;2023-02-25T04:28:26;13.63;;;9.23;;
16288;SDS011;26089;43.538;5.250;2023-02-25T04:30:53;15.73;;;8.63;;
16288;SDS011;26089;43.538;5.250;2023-02-25T04:33:20;15.03;;;9.87;;
16288;SDS011;26089;43.538;5.250;2023-02-25T04:35:47;14.33;;;8.90;;
16288;SDS011;26089;43.538;5.250;2023-02-25T04:38:14;15.50;;;9.90;;
16288;SDS011;26089;43.538;5.250;2023-02-25T04:40:42;18.47;;;9.50;;
16288;SDS011;26089;43.538;5.250;2023-02-25T04:43:09;18.90;;;9.37;;
16288;SDS011;26089;43.538;5.250;2023-02-25T04:45:36;14.33;;;8.90;;
16288;SDS011;26089;43.538;5.250;2023-02-25T04:48:03;13.43;;;9.33;;
16288;SDS011;26089;43.538;5.250;2023-02-25T04:50:31;12.50;;;8.67;;
16288;SDS011;26089;43.538;5.250;2023-02-25T04:52:58;14.67;;;8.97;;
16288;SDS011;26089;43.538;5.250;2023-02-25T04:55:26;12.87;;;8.67;;
16288;SDS011;26089;43.538;5.250;2023-02-25T04:57:54;12.73;;;8.80;;
16288;SDS011;26089;43.538;5.250;2023-02-25T05:00:22;16.60;;;9.67;;
16288;SDS011;26089;43.538;5.250;2023-02-25T05:02:49;15.43;;;8.53;;
16288;SDS011;26089;43.538;5.250;2023-02-25T05:05:17;14.97;;;8.53;;
16288;SDS011;26089;43.538;5.250;2023-02-25T05:07:44;12.10;;;8.37;;
16288;SDS011;26089;43.538;5.250;2023-02-25T05:10:12;12.90;;;8.90;;
16288;SDS011;26089;43.538;5.250;2023-02-25T05:12:39;13.10;;;8.47;;
16288;SDS011;26089;43.538;5.250;2023-02-25T05:15:09;14.97;;;8.73;;
16288;SDS011;26089;43.538;5.250;2023-02-25T05:17:37;13.37;;;7.93;;
16288;SDS011;26089;43.538;5.250;2023-02-25T05:20:04;19.13;;;9.20;;
16288;SDS011;26089;43.538;5.250;2023-02-25T05:22:36;12.13;;;8.30;;
16288;SDS011;26089;43.538;5.250;2023-02-25T05:25:04;11.67;;;8.10;;
16288;SDS011;26089;43.538;5.250;2023-02-25T05:27:32;16.27;;;8.70;;
16288;SDS011;26089;43.538;5.250;2023-02-25T05:29:59;19.70;;;9.13;;
16288;SDS011;26089;43.538;5.250;2023-02-25T05:32:27;11.40;;;7.40;;
16288;SDS011;26089;43.538;5.250;2023-02-25T05:34:55;12.43;;;8.00;;
16288;SDS011;26089;43.538;5.250;2023-02-25T05:37:23;12.20;;;7.73;;
16288;SDS011;26089;43.538;5.250;2023-02-25T05:39:50;11.53;;;7.20;;
16288;SDS011;26089;43.538;5.250;2023-02-25T05:42:17;12.43;;;8.23;;
16288;SDS011;26089;43.538;5.250;2023-02-25T05:44:44;12.90;;;8.23;;
16288;SDS011;26089;43.538;5.250;2023-02-25T05:47:11;13.37;;;7.80;;
16288;SDS011;26089;43.538;5.250;2023-02-25T05:49:40;12.60;;;8.33;;
16288;SDS011;26089;43.538;5.250;2023-02-25T05:52:08;12.30;;;8.33;;
16288;SDS011;26089;43.538;5.250;2023-02-25T05:54:35;15.47;;;7.97;;
16288;SDS011;26089;43.538;5.250;2023-02-25T05:57:03;12.83;;;8.77;;
16288;SDS011;26089;43.538;5.250;2023-02-25T05:59:30;11.03;;;8.00;;
16288;SDS011;26089;43.538;5.250;2023-02-25T06:01:57;13.50;;;7.90;;
16288;SDS011;26089;43.538;5.250;2023-02-25T06:04:25;11.67;;;8.57;;
16288;SDS011;26089;43.538;5.250;2023-02-25T06:06:53;11.27;;;7.87;;
16288;SDS011;26089;43.538;5.250;2023-02-25T06:09:20;14.23;;;8.33;;
16288;SDS011;26089;43.538;5.250;2023-02-25T06:11:47;13.67;;;8.30;;
16288;SDS011;26089;43.538;5.250;2023-02-25T06:14:15;11.67;;;8.00;;
16288;SDS011;26089;43.538;5.250;2023-02-25T06:16:42;13.93;;;7.83;;
16288;SDS011;26089;43.538;5.250;2023-02-25T06:19:09;10.93;;;8.00;;
16288;SDS011;26089;43.538;5.250;2023-02-25T06:21:38;12.50;;;7.30;;
16288;SDS011;26089;43.538;5.250;2023-02-25T06:24:07;13.67;;;8.13;;
16288;SDS011;26089;43.538;5.250;2023-02-25T06:26:35;12.87;;;8.33;;
16288;SDS011;26089;43.538;5.250;2023-02-25T06:29:06;9.33;;;7.97;;
16288;SDS011;26089;43.538;5.250;2023-02-25T06:31:34;11.37;;;7.50;;
16288;SDS011;26089;43.538;5.250;2023-02-25T06:34:01;15.20;;;7.83;;
16288;SDS011;26089;43.538;5.250;2023-02-25T06:36:28;17.83;;;9.03;;
16288;SDS011;26089;43.538;5.250;2023-02-25T06:38:56;13.40;;;8.53;;
16288;SDS011;26089;43.538;5.250;2023-02-25T06:41:24;11.90;;;8.63;;
16288;SDS011;26089;43.538;5.250;2023-02-25T06:43:52;12.40;;;7.70;;
16288;SDS011;26089;43.538;5.250;2023-02-25T06:46:20;14.20;;;7.70;;
16288;SDS011;26089;43.538;5.250;2023-02-25T06:48:49;15.93;;;8.23;;
16288;SDS011;26089;43.538;5.250;2023-02-25T06:51:16;13.57;;;9.10;;
16288;SDS011;26089;43.538;5.250;2023-02-25T06:53:43;11.00;;;7.80;;
16288;SDS011;26089;43.538;5.250;2023-02-25T06:56:13;10.03;;;7.87;;
16288;SDS011;26089;43.538;5.250;2023-02-25T06:58:42;16.10;;;8.20;;
16288;SDS011;26089;43.538;5.250;2023-02-25T07:01:10;13.70;;;7.73;;
16288;SDS011;26089;43.538;5.250;2023-02-25T07:03:39;12.80;;;7.47;;
16288;SDS011;26089;43.538;5.250;2023-02-25T07:06:07;13.10;;;7.73;;
16288;SDS011;26089;43.538;5.250;2023-02-25T07:08:35;11.47;;;8.10;;
16288;SDS011;26089;43.538;5.250;2023-02-25T07:11:09;12.77;;;8.60;;
16288;SDS011;26089;43.538;5.250;2023-02-25T07:13:39;13.50;;;8.30;;
16288;SDS011;26089;43.538;5.250;2023-02-25T07:16:08;12.90;;;8.47;;
16288;SDS011;26089;43.538;5.250;2023-02-25T07:18:35;12.70;;;7.57;;
16288;SDS011;26089;43.538;5.250;2023-02-25T07:21:02;12.30;;;7.90;;
16288;SDS011;26089;43.538;5.250;2023-02-25T07:23:30;14.17;;;8.47;;
16288;SDS011;26089;43.538;5.250;2023-02-25T07:26:00;13.57;;;8.93;;
16288;SDS011;26089;43.538;5.250;2023-02-25T07:28:28;13.00;;;8.10;;
16288;SDS011;26089;43.538;5.250;2023-02-25T07:30:57;11.70;;;8.40;;
16288;SDS011;26089;43.538;5.250;2023-02-25T07:33:25;13.20;;;8.47;;
16288;SDS011;26089;43.538;5.250;2023-02-25T07:35:53;15.13;;;7.87;;
16288;SDS011;26089;43.538;5.250;2023-02-25T07:38:20;12.47;;;7.87;;
16288;SDS011;26089;43.538;5.250;2023-02-25T07:40:47;13.07;;;7.53;;
16288;SDS011;26089;43.538;5.250;2023-02-25T07:43:14;11.20;;;8.30;;
16288;SDS011;26089;43.538;5.250;2023-02-25T07:45:41;16.13;;;8.63;;
16288;SDS011;26089;43.538;5.250;2023-02-25T07:48:10;12.70;;;8.83;;
16288;SDS011;26089;43.538;5.250;2023-02-25T07:50:37;14.67;;;8.20;;
16288;SDS011;26089;43.538;5.250;2023-02-25T07:53:04;15.27;;;8.33;;
16288;SDS011;26089;43.538;5.250;2023-02-25T07:55:31;16.40;;;9.23;;
16288;SDS011;26089;43.538;5.250;2023-02-25T07:57:58;12.60;;;8.20;;
16288;SDS011;26089;43.538;5.250;2023-02-25T08:00:25;14.53;;;8.37;;
16288;SDS011;26089;43.538;5.250;2023-02-25T08:02:52;14.63;;;8.53;;
16288;SDS011;26089;43.538;5.250;2023-02-25T08:05:21;14.63;;;8.53;;
16288;SDS011;26089;43.538;5.250;2023-02-25T08:07:48;13.17;;;9.30;;
16288;SDS011;26089;43.538;5.250;2023-02-25T08:10:16;15.13;;;8.63;;
16288;SDS011;26089;43.538;5.250;2023-02-25T08:12:43;14.80;;;8.60;;
16288;SDS011;26089;43.538;5.250;2023-02-25T08:15:10;16.93;;;8.93;;
16288;SDS011;26089;43.538;5.250;2023-02-25T08:17:37;12.63;;;9.00;;
16288;SDS011;26089;43.538;5.250;2023-02-25T08:20:05;17.53;;;8.07;;
16288;SDS011;26089;43.538;5.250;2023-02-25T08:22:35;10.53;;;8.17;;
16288;SDS011;26089;43.538;5.250;2023-02-25T08:25:02;15.30;;;9.03;;
16288;SDS011;26089;43.538;5.250;2023-02-25T08:27:30;14.63;;;9.07;;
16288;SDS011;26089;43.538;5.250;2023-02-25T08:29:57;15.20;;;9.27;;
16288;SDS011;26089;43.538;5.250;2023-02-25T08:32:24;14.00;;;9.43;;
16288;SDS011;26089;43.538;5.250;2023-02-25T08:34:51;18.60;;;8.77;;
16288;SDS011;26089;43.538;5.250;2023-02-25T08:37:20;10.87;;;8.33;;
16288;SDS011;26089;43.538;5.250;2023-02-25T08:39:52;16.93;;;9.03;;
16288;SDS011;26089;43.538;5.250;2023-02-25T08:42:19;15.77;;;9.03;;
16288;SDS011;26089;43.538;5.250;2023-02-25T08:44:46;18.47;;;10.90;;
16288;SDS011;26089;43.538;5.250;2023-02-25T08:47:14;19.20;;;10.17;;
16288;SDS011;26089;43.538;5.250;2023-02-25T08:49:41;14.17;;;9.63;;
16288;SDS011;26089;43.538;5.250;2023-02-25T08:52:08;15.17;;;9.50;;
16288;SDS011;26089;43.538;5.250;2023-02-25T08:54:36;16.40;;;9.40;;
16288;SDS011;26089;43.538;5.250;2023-02-25T08:57:04;18.03;;;9.47;;
16288;SDS011;26089;43.538;5.250;2023-02-25T08:59:31;16.00;;;9.60;;
16288;SDS011;26089;43.538;5.250;2023-02-25T09:02:00;13.03;;;8.30;;
16288;SDS011;26089;43.538;5.250;2023-02-25T09:04:28;13.37;;;8.47;;
16288;SDS011;26089;43.538;5.250;2023-02-25T09:06:55;16.50;;;9.40;;
16288;SDS011;26089;43.538;5.250;2023-02-25T09:09:24;13.43;;;9.50;;
16288;SDS011;26089;43.538;5.250;2023-02-25T09:11:51;16.73;;;9.40;;
16288;SDS011;26089;43.538;5.250;2023-02-25T09:14:20;12.60;;;8.40;;
16288;SDS011;26089;43.538;5.250;2023-02-25T09:16:47;13.93;;;7.87;;
16288;SDS011;26089;43.538;5.250;2023-02-25T09:19:15;15.63;;;8.53;;
16288;SDS011;26089;43.538;5.250;2023-02-25T09:21:43;12.57;;;8.30;;
16288;SDS011;26089;43.538;5.250;2023-02-25T09:24:12;14.70;;;8.13;;
16288;SDS011;26089;43.538;5.250;2023-02-25T09:26:39;15.50;;;9.23;;
16288;SDS011;26089;43.538;5.250;2023-02-25T09:29:06;15.93;;;8.70;;
16288;SDS011;26089;43.538;5.250;2023-02-25T09:31:35;13.87;;;8.00;;
16288;SDS011;26089;43.538;5.250;2023-02-25T09:34:04;12.23;;;8.27;;
16288;SDS011;26089;43.538;5.250;2023-02-25T09:36:32;13.20;;;9.00;;
16288;SDS011;26089;43.538;5.250;2023-02-25T09:38:59;11.73;;;6.73;;
16288;SDS011;26089;43.538;5.250;2023-02-25T09:41:28;13.00;;;7.30;;
16288;SDS011;26089;43.538;5.250;2023-02-25T09:44:00;13.10;;;7.33;;
16288;SDS011;26089;43.538;5.250;2023-02-25T09:46:31;12.47;;;7.13;;
16288;SDS011;26089;43.538;5.250;2023-02-25T09:49:03;11.37;;;6.03;;
16288;SDS011;26089;43.538;5.250;2023-02-25T09:51:35;11.77;;;6.03;;
16288;SDS011;26089;43.538;5.250;2023-02-25T09:54:08;12.30;;;6.43;;
16288;SDS011;26089;43.538;5.250;2023-02-25T09:56:41;13.97;;;6.70;;
16288;SDS011;26089;43.538;5.250;2023-02-25T09:59:10;11.07;;;6.67;;
16288;SDS011;26089;43.538;5.250;2023-02-25T10:01:41;9.13;;;6.07;;
16288;SDS011;26089;43.538;5.250;2023-02-25T10:04:14;13.53;;;6.33;;
16288;SDS011;26089;43.538;5.250;2023-02-25T10:06:48;12.17;;;6.80;;
16288;SDS011;26089;43.538;5.250;2023-02-25T10:09:19;12.20;;;7.27;;
16288;SDS011;26089;43.538;5.250;2023-02-25T10:11:52;13.57;;;7.10;;
16288;SDS011;26089;43.538;5.250;2023-02-25T10:17:21;12.53;;;7.13;;
16288;SDS011;26089;43.538;5.250;2023-02-25T10:20:02;11.17;;;7.13;;
16288;SDS011;26089;43.538;5.250;2023-02-25T10:22:58;13.97;;;7.60;;
16288;SDS011;26089;43.538;5.250;2023-02-25T10:25:31;14.80;;;7.70;;
16288;SDS011;26089;43.538;5.250;2023-02-25T10:28:05;14.30;;;7.30;;
16288;SDS011;26089;43.538;5.250;2023-02-25T10:30:41;9.77;;;7.10;;
16288;SDS011;26089;43.538;5.250;2023-02-25T10:33:15;11.13;;;7.77;;
16288;SDS011;26089;43.538;5.250;2023-02-25T10:35:47;11.57;;;7.30;;
16288;SDS011;26089;43.538;5.250;2023-02-25T10:38:16;12.83;;;6.80;;
16288;SDS011;26089;43.538;5.250;2023-02-25T10:40:43;14.10;;;6.97;;
16288;SDS011;26089;43.538;5.250;2023-02-25T10:43:15;13.07;;;7.00;;
16288;SDS011;26089;43.538;5.250;2023-02-25T10:45:46;12.20;;;7.40;;
16288;SDS011;26089;43.538;5.250;2023-02-25T10:48:18;10.13;;;7.03;;
16288;SDS011;26089;43.538;5.250;2023-02-25T10:51:01;12.80;;;7.27;;
16288;SDS011;26089;43.538;5.250;2023-02-25T10:53:34;13.47;;;6.57;;
16288;SDS011;26089;43.538;5.250;2023-02-25T10:56:01;12.03;;;6.63;;
16288;SDS011;26089;43.538;5.250;2023-02-25T10:58:39;11.53;;;5.97;;
16288;SDS011;26089;43.538;5.250;2023-02-25T11:01:09;11.50;;;7.53;;
16288;SDS011;26089;43.538;5.250;2023-02-25T11:03:45;10.87;;;6.57;;
16288;SDS011;26089;43.538;5.250;2023-02-25T11:06:21;14.87;;;7.30;;
16288;SDS011;26089;43.538;5.250;2023-02-25T11:08:51;14.13;;;6.60;;
16288;SDS011;26089;43.538;5.250;2023-02-25T11:11:21;9.23;;;6.27;;
16288;SDS011;26089;43.538;5.250;2023-02-25T11:13:58;11.27;;;7.20;;
16288;SDS011;26089;43.538;5.250;2023-02-25T11:16:27;12.27;;;5.90;;
16288;SDS011;26089;43.538;5.250;2023-02-25T11:18:56;11.83;;;6.20;;
16288;SDS011;26089;43.538;5.250;2023-02-25T11:21:34;13.67;;;6.07;;
16288;SDS011;26089;43.538;5.250;2023-02-25T11:24:04;14.90;;;6.20;;
16288;SDS011;26089;43.538;5.250;2023-02-25T11:26:38;10.70;;;5.97;;
16288;SDS011;26089;43.538;5.250;2023-02-25T11:29:10;10.33;;;5.77;;
16288;SDS011;26089;43.538;5.250;2023-02-25T11:31:40;8.33;;;5.83;;
16288;SDS011;26089;43.538;5.250;2023-02-25T11:34:12;8.63;;;6.20;;
16288;SDS011;26089;43.538;5.250;2023-02-25T11:36:43;6.87;;;5.10;;
16288;SDS011;26089;43.538;5.250;2023-02-25T11:39:13;12.53;;;5.80;;
16288;SDS011;26089;43.538;5.250;2023-02-25T11:41:43;9.07;;;5.17;;
16288;SDS011;26089;43.538;5.250;2023-02-25T11:44:21;10.77;;;5.53;;
16288;SDS011;26089;43.538;5.250;2023-02-25T11:46:58;7.77;;;4.90;;
16288;SDS011;26089;43.538;5.250;2023-02-25T11:52:39;8.93;;;5.17;;
16288;SDS011;26089;43.538;5.250;2023-02-25T11:55:17;12.10;;;6.00;;
16288;SDS011;26089;43.538;5.250;2023-02-25T11:57:55;6.53;;;5.70;;
16288;SDS011;26089;43.538;5.250;2023-02-25T12:00:31;10.10;;;4.87;;
16288;SDS011;26089;43.538;5.250;2023-02-25T12:03:09;13.20;;;5.33;;
16288;SDS011;26089;43.538;5.250;2023-02-25T12:06:02;6.83;;;4.67;;
16288;SDS011;26089;43.538;5.250;2023-02-25T12:08:47;8.93;;;4.70;;
16288;SDS011;26089;43.538;5.250;2023-02-25T12:11:43;7.87;;;5.30;;
16288;SDS011;26089;43.538;5.250;2023-02-25T12:14:49;11.37;;;5.70;;
16288;SDS011;26089;43.538;5.250;2023-02-25T12:17:44;11.20;;;5.70;;
16288;SDS011;26089;43.538;5.250;2023-02-25T12:24:02;8.93;;;4.73;;
16288;SDS011;26089;43.538;5.250;2023-02-25T12:27:08;5.33;;;4.47;;
16288;SDS011;26089;43.538;5.250;2023-02-25T12:29:59;9.23;;;4.30;;
16288;SDS011;26089;43.538;5.250;2023-02-25T12:32:57;11.40;;;5.57;;
16288;SDS011;26089;43.538;5.250;2023-02-25T12:35:35;6.53;;;4.83;;
16288;SDS011;26089;43.538;5.250;2023-02-25T12:41:36;7.97;;;4.90;;
16288;SDS011;26089;43.538;5.250;2023-02-25T12:44:14;7.03;;;5.37;;
16288;SDS011;26089;43.538;5.250;2023-02-25T12:47:24;7.77;;;5.27;;
16288;SDS011;26089;43.538;5.250;2023-02-25T12:50:19;6.83;;;4.60;;
16288;SDS011;26089;43.538;5.250;2023-02-25T12:53:12;7.30;;;4.50;;
16288;SDS011;26089;43.538;5.250;2023-02-25T12:58:58;5.00;;;4.50;;
16288;SDS011;26089;43.538;5.250;2023-02-25T13:05:11;7.00;;;4.13;;
16288;SDS011;26089;43.538;5.250;2023-02-25T13:07:55;8.73;;;5.17;;
16288;SDS011;26089;43.538;5.250;2023-02-25T13:10:34;7.40;;;5.43;;
16288;SDS011;26089;43.538;5.250;2023-02-25T13:13:16;8.63;;;5.60;;
16288;SDS011;26089;43.538;5.250;2023-02-25T13:16:07;9.33;;;4.80;;
16288;SDS011;26089;43.538;5.250;2023-02-25T13:18:45;9.43;;;5.37;;
16288;SDS011;26089;43.538;5.250;2023-02-25T13:21:31;8.97;;;5.40;;
16288;SDS011;26089;43.538;5.250;2023-02-25T13:24:11;6.93;;;4.77;;
16288;SDS011;26089;43.538;5.250;2023-02-25T13:29:56;8.33;;;4.57;;
16288;SDS011;26089;43.538;5.250;2023-02-25T13:32:48;8.60;;;4.57;;
16288;SDS011;26089;43.538;5.250;2023-02-25T13:35:29;8.53;;;4.57;;
16288;SDS011;26089;43.538;5.250;2023-02-25T13:38:11;7.90;;;4.77;;
16288;SDS011;26089;43.538;5.250;2023-02-25T13:40:50;5.17;;;3.90;;
16288;SDS011;26089;43.538;5.250;2023-02-25T13:43:31;8.93;;;4.83;;
16288;SDS011;26089;43.538;5.250;2023-02-25T13:52:22;8.97;;;3.90;;
16288;SDS011;26089;43.538;5.250;2023-02-25T13:55:18;8.43;;;4.03;;
16288;SDS011;26089;43.538;5.250;2023-02-25T14:01:05;8.50;;;4.77;;
16288;SDS011;26089;43.538;5.250;2023-02-25T14:03:51;7.07;;;3.90;;
16288;SDS011;26089;43.538;5.250;2023-02-25T14:06:44;8.07;;;4.13;;
16288;SDS011;26089;43.538;5.250;2023-02-25T14:09:31;5.13;;;3.60;;
16288;SDS011;26089;43.538;5.250;2023-02-25T14:12:03;6.83;;;3.83;;
16288;SDS011;26089;43.538;5.250;2023-02-25T14:14:45;8.07;;;3.73;;
16288;SDS011;26089;43.538;5.250;2023-02-25T14:17:33;4.40;;;3.97;;
16288;SDS011;26089;43.538;5.250;2023-02-25T14:20:17;6.37;;;4.20;;
16288;SDS011;26089;43.538;5.250;2023-02-25T14:22:55;6.33;;;3.60;;
16288;SDS011;26089;43.538;5.250;2023-02-25T14:25:38;8.50;;;3.57;;
16288;SDS011;26089;43.538;5.250;2023-02-25T14:28:14;7.07;;;4.00;;
16288;SDS011;26089;43.538;5.250;2023-02-25T14:30:54;5.47;;;4.00;;
16288;SDS011;26089;43.538;5.250;2023-02-25T14:33:39;8.63;;;4.97;;
16288;SDS011;26089;43.538;5.250;2023-02-25T14:36:28;9.65;;;4.60;;
16288;SDS011;26089;43.538;5.250;2023-02-25T14:39:20;4.73;;;3.50;;
16288;SDS011;26089;43.538;5.250;2023-02-25T14:42:07;5.47;;;3.40;;
16288;SDS011;26089;43.538;5.250;2023-02-25T14:44:47;6.13;;;3.70;;
16288;SDS011;26089;43.538;5.250;2023-02-25T14:47:19;6.37;;;3.47;;
16288;SDS011;26089;43.538;5.250;2023-02-25T14:49:53;6.70;;;4.10;;
16288;SDS011;26089;43.538;5.250;2023-02-25T14:55:44;7.23;;;3.37;;
16288;SDS011;26089;43.538;5.250;2023-02-25T14:58:32;5.60;;;3.73;;
16288;SDS011;26089;43.538;5.250;2023-02-25T15:01:34;4.70;;;3.80;;
16288;SDS011;26089;43.538;5.250;2023-02-25T15:07:19;6.97;;;3.57;;
16288;SDS011;26089;43.538;5.250;2023-02-25T15:13:15;6.40;;;4.00;;
16288;SDS011;26089;43.538;5.250;2023-02-25T15:16:19;8.23;;;3.60;;
16288;SDS011;26089;43.538;5.250;2023-02-25T15:19:14;4.33;;;3.53;;
16288;SDS011;26089;43.538;5.250;2023-02-25T15:22:09;4.43;;;3.60;;
16288;SDS011;26089;43.538;5.250;2023-02-25T15:24:46;4.90;;;3.20;;
16288;SDS011;26089;43.538;5.250;2023-02-25T15:30:21;3.80;;;3.33;;
16288;SDS011;26089;43.538;5.250;2023-02-25T15:32:52;7.13;;;3.40;;
16288;SDS011;26089;43.538;5.250;2023-02-25T15:35:55;5.73;;;3.80;;
16288;SDS011;26089;43.538;5.250;2023-02-25T15:47:18;6.77;;;4.27;;
16288;SDS011;26089;43.538;5.250;2023-02-25T15:49:53;6.97;;;5.10;;
16288;SDS011;26089;43.538;5.250;2023-02-25T15:55:18;5.87;;;5.00;;
16288;SDS011;26089;43.538;5.250;2023-02-25T15:57:54;6.03;;;4.40;;
16288;SDS011;26089;43.538;5.250;2023-02-25T16:03:26;6.47;;;3.80;;
16288;SDS011;26089;43.538;5.250;2023-02-25T16:06:09;3.73;;;3.43;;
16288;SDS011;26089;43.538;5.250;2023-02-25T16:08:45;6.90;;;4.43;;
16288;SDS011;26089;43.538;5.250;2023-02-25T16:11:21;6.07;;;3.87;;